createdAt,value
2023-11-27T00:01:45.943Z,78.55
2023-11-27T00:04:17.986Z,78.70
2023-11-27T00:06:49.771Z,78.60
2023-11-27T00:09:22.697Z,79.15
2023-11-27T00:11:54.492Z,78.44
2023-11-27T00:14:26.268Z,78.51
2023-11-27T00:16:58.175Z,78.16
2023-11-27T00:19:29.979Z,78.06
2023-11-27T00:22:01.772Z,77.87
2023-11-27T00:24:33.627Z,78.09
2023-11-27T00:27:05.476Z,77.83
2023-11-27T00:29:37.391Z,78.00
2023-11-27T00:32:10.359Z,78.14
2023-11-27T00:34:42.492Z,77.80
2023-11-27T00:37:14.321Z,77.72
2023-11-27T00:39:46.188Z,77.46
2023-11-27T00:42:19.369Z,77.63
2023-11-27T00:44:51.124Z,77.34
2023-11-27T00:47:22.896Z,78.03
2023-11-27T00:49:54.829Z,78.04
2023-11-27T00:52:26.647Z,78.19
2023-11-27T00:54:58.461Z,78.08
2023-11-27T00:57:30.355Z,78.51
2023-11-27T01:00:02.142Z,78.34
2023-11-27T01:02:34.023Z,77.95
2023-11-27T01:05:08.933Z,78.04
2023-11-27T01:07:40.904Z,78.55
2023-11-27T01:10:12.668Z,78.81
2023-11-27T01:12:47.455Z,78.90
2023-11-27T01:15:20.850Z,79.25
2023-11-27T01:17:52.626Z,78.77
2023-11-27T01:20:24.400Z,78.87
2023-11-27T01:22:56.364Z,78.73
2023-11-27T01:25:28.125Z,78.93
2023-11-27T01:28:00.014Z,79.62
2023-11-27T01:30:31.824Z,79.52
2023-11-27T01:33:05.698Z,79.17
2023-11-27T01:35:37.639Z,79.15
2023-11-27T01:38:09.400Z,79.46
2023-11-27T01:40:41.213Z,79.63
2023-11-27T01:43:16.879Z,79.70
2023-11-27T01:45:50.583Z,79.44
2023-11-27T01:48:22.392Z,79.36
2023-11-27T01:50:54.223Z,79.74
2023-11-27T01:53:26.083Z,80.17
2023-11-27T01:55:57.894Z,80.61
2023-11-27T01:58:29.894Z,80.79
2023-11-27T02:01:01.879Z,80.16
2023-11-27T02:03:33.821Z,80.30
2023-11-27T02:06:06.041Z,80.19
2023-11-27T02:08:37.835Z,80.16
2023-11-27T02:11:09.622Z,80.62
2023-11-27T02:13:41.387Z,80.68
2023-11-27T02:16:13.303Z,80.82
2023-11-27T02:18:45.241Z,80.52
2023-11-27T02:21:19.071Z,80.39
2023-11-27T02:23:50.930Z,80.74
2023-11-27T02:26:23.098Z,80.39
2023-11-27T02:28:55.926Z,80.53
2023-11-27T02:31:29.248Z,80.82
2023-11-27T02:34:01.628Z,80.91
2023-11-27T02:36:39.917Z,81.17
2023-11-27T02:39:11.798Z,81.11
2023-11-27T02:41:43.605Z,81.39
2023-11-27T02:44:15.738Z,80.54
2023-11-27T02:46:47.941Z,81.03
2023-11-27T02:49:19.787Z,81.21
2023-11-27T02:51:51.595Z,81.02
2023-11-27T02:54:23.453Z,81.13
2023-11-27T02:56:55.274Z,81.16
2023-11-27T02:59:27.054Z,81.29
2023-11-27T03:01:58.902Z,81.13
2023-11-27T03:04:32.202Z,81.71
2023-11-27T03:07:04.227Z,81.50
2023-11-27T03:09:36.016Z,81.56
2023-11-27T03:12:08.034Z,81.62
2023-11-27T03:14:39.917Z,81.48
2023-11-27T03:17:11.739Z,81.57
2023-11-27T03:19:47.968Z,81.89
2023-11-27T03:22:21.876Z,81.38
2023-11-27T03:24:53.734Z,81.59
2023-11-27T03:27:25.570Z,81.18
2023-11-27T03:29:59.149Z,80.77
2023-11-27T03:32:32.269Z,80.86
2023-11-27T03:35:05.945Z,81.22
2023-11-27T03:37:37.837Z,81.50
2023-11-27T03:40:10.020Z,81.54
2023-11-27T03:42:42.509Z,81.36
2023-11-27T03:45:14.357Z,81.47
2023-11-27T03:47:46.173Z,81.11
2023-11-27T03:50:18.043Z,81.50
2023-11-27T03:52:49.883Z,81.13
2023-11-27T03:55:21.649Z,81.07
2023-11-27T03:57:53.482Z,81.45
2023-11-27T04:00:26.791Z,80.88
2023-11-27T04:02:58.601Z,81.04
2023-11-27T04:05:30.391Z,81.18
2023-11-27T04:08:02.433Z,80.76
2023-11-27T04:10:34.287Z,80.78
2023-11-27T04:13:06.380Z,81.09
2023-11-27T04:15:38.305Z,81.04
2023-11-27T04:18:10.525Z,81.61
2023-11-27T04:20:42.473Z,81.28
2023-11-27T04:23:14.277Z,81.35
2023-11-27T04:25:46.026Z,81.41
2023-11-27T04:28:17.826Z,81.51
2023-11-27T04:30:49.708Z,81.34
2023-11-27T04:33:21.566Z,81.12
2023-11-27T04:35:55.162Z,81.22
2023-11-27T04:38:27.022Z,81.11
2023-11-27T04:40:58.804Z,81.56
2023-11-27T04:43:30.623Z,81.61
2023-11-27T04:46:02.491Z,81.28
2023-11-27T04:48:35.089Z,81.48
2023-11-27T04:51:07.296Z,81.20
2023-11-27T04:53:39.061Z,81.12
2023-11-27T04:56:12.089Z,81.52
2023-11-27T04:58:45.060Z,81.87
2023-11-27T05:01:16.888Z,82.03
2023-11-27T05:03:48.782Z,81.75
2023-11-27T05:06:20.620Z,81.96
2023-11-27T05:08:52.394Z,81.97
2023-11-27T05:11:25.097Z,82.28
2023-11-27T05:13:56.923Z,81.93
2023-11-27T05:16:28.744Z,81.57
2023-11-27T05:19:00.705Z,82.25
2023-11-27T05:21:32.500Z,82.86
2023-11-27T05:24:04.476Z,82.41
2023-11-27T05:26:36.248Z,82.09
2023-11-27T05:29:08.545Z,82.15
2023-11-27T05:31:40.452Z,81.89
2023-11-27T05:34:12.522Z,81.94
2023-11-27T05:36:44.758Z,81.68
2023-11-27T05:39:16.973Z,81.42
2023-11-27T05:41:50.946Z,81.32
2023-11-27T05:44:22.718Z,80.90
2023-11-27T05:46:54.639Z,81.41
2023-11-27T05:49:26.589Z,81.69
2023-11-27T05:51:59.303Z,81.69
2023-11-27T05:54:31.323Z,81.43
2023-11-27T05:57:03.843Z,81.47
2023-11-27T05:59:35.613Z,81.29
2023-11-27T06:02:07.886Z,80.69
2023-11-27T06:04:39.682Z,81.11
2023-11-27T06:07:11.466Z,81.45
2023-11-27T06:09:43.833Z,81.20
2023-11-27T06:12:16.067Z,81.33
2023-11-27T06:14:47.836Z,80.98
2023-11-27T06:17:19.784Z,81.63
2023-11-27T06:19:51.567Z,81.79
2023-11-27T06:22:24.794Z,81.62
2023-11-27T06:24:58.088Z,82.66
2023-11-27T06:27:30.319Z,82.10
2023-11-27T06:30:02.132Z,81.83
2023-11-27T06:32:35.318Z,81.53
2023-11-27T06:35:07.655Z,81.78
2023-11-27T06:37:39.436Z,81.50
2023-11-27T06:40:11.415Z,81.88
2023-11-27T06:42:43.232Z,82.06
2023-11-27T06:45:15.052Z,82.46
2023-11-27T06:47:46.854Z,82.57
2023-11-27T06:50:22.305Z,82.77
2023-11-27T06:52:54.231Z,82.28
2023-11-27T06:55:26.010Z,82.19
2023-11-27T07:00:33.160Z,82.06
2023-11-27T07:03:05.220Z,82.23
2023-11-27T07:05:37.179Z,82.08
2023-11-27T07:08:09.285Z,81.68
2023-11-27T07:10:41.305Z,82.02
2023-11-27T07:13:13.388Z,82.15
2023-11-27T07:15:45.202Z,81.90
2023-11-27T07:18:20.055Z,81.82
2023-11-27T07:20:53.382Z,81.64
2023-11-27T07:23:28.307Z,80.98
2023-11-27T07:26:00.133Z,81.14
2023-11-27T07:28:31.964Z,80.35
2023-11-27T07:31:04.460Z,80.82
2023-11-27T07:33:36.286Z,80.23
2023-11-27T07:36:08.689Z,80.67
2023-11-27T07:38:42.161Z,80.30
2023-11-27T07:41:14.460Z,80.58
2023-11-27T07:43:46.385Z,80.63
2023-11-27T07:46:18.477Z,80.71
2023-11-27T07:48:50.433Z,80.63
2023-11-27T07:51:22.189Z,81.04
2023-11-27T07:53:53.939Z,80.41
2023-11-27T07:56:29.885Z,80.47
2023-11-27T07:59:01.735Z,80.61
2023-11-27T08:01:33.578Z,81.07
2023-11-27T08:04:05.551Z,80.40
2023-11-27T08:06:37.487Z,80.91
2023-11-27T08:09:09.377Z,79.89
2023-11-27T08:11:43.380Z,80.37
2023-11-27T08:14:15.238Z,79.84
2023-11-27T08:16:49.075Z,79.73
2023-11-27T08:19:22.340Z,79.06
2023-11-27T08:21:55.178Z,79.20
2023-11-27T08:24:26.967Z,79.26
2023-11-27T08:26:59.089Z,78.95
2023-11-27T08:29:32.308Z,79.42
2023-11-27T08:32:04.497Z,79.71
2023-11-27T08:34:36.319Z,79.17
2023-11-27T08:37:11.019Z,79.26
2023-11-27T08:39:42.866Z,78.54
2023-11-27T08:42:14.650Z,78.83
2023-11-27T08:44:46.416Z,78.04
2023-11-27T08:47:18.720Z,77.84
2023-11-27T08:49:50.549Z,78.10
2023-11-27T08:52:22.348Z,77.99
2023-11-27T08:54:56.730Z,77.76
2023-11-27T08:57:28.585Z,78.33
2023-11-27T09:00:00.406Z,78.50
2023-11-27T09:02:32.342Z,78.70
2023-11-27T09:05:05.060Z,77.98
2023-11-27T09:07:36.902Z,78.28
2023-11-27T09:10:09.277Z,78.16
2023-11-27T09:12:41.062Z,78.04
2023-11-27T09:15:12.830Z,77.33
2023-11-27T09:17:45.674Z,77.66
2023-11-27T09:20:17.937Z,78.03
2023-11-27T09:22:49.779Z,77.34
2023-11-27T09:25:22.341Z,77.13
2023-11-27T09:27:54.132Z,77.59
2023-11-27T09:30:26.015Z,75.98
2023-11-27T09:32:57.844Z,76.12
2023-11-27T09:35:29.703Z,76.00
2023-11-27T09:38:02.136Z,76.11
2023-11-27T09:40:40.559Z,75.61
2023-11-27T09:43:12.581Z,75.33
2023-11-27T09:45:44.372Z,75.83
2023-11-27T09:48:18.644Z,74.86
2023-11-27T09:50:55.838Z,75.31
2023-11-27T09:53:31.051Z,74.41
2023-11-27T09:56:04.237Z,74.29
2023-11-27T09:58:44.076Z,74.54
2023-11-27T10:01:17.112Z,73.94
2023-11-27T10:03:49.314Z,74.50
2023-11-27T10:06:21.250Z,73.99
2023-11-27T10:09:09.246Z,74.25
2023-11-27T10:11:43.051Z,73.35
2023-11-27T10:14:34.995Z,73.04
2023-11-27T10:17:07.475Z,72.06
2023-11-27T10:19:41.478Z,71.86
2023-11-27T10:22:13.486Z,72.01
2023-11-27T10:24:45.822Z,71.70
2023-11-27T10:27:17.626Z,71.02
2023-11-27T10:29:49.452Z,71.70
2023-11-27T10:32:26.827Z,71.94
2023-11-27T10:34:59.128Z,71.16
2023-11-27T10:37:36.952Z,71.56
2023-11-27T10:40:15.751Z,71.07
2023-11-27T10:42:52.101Z,70.51
2023-11-27T10:45:23.919Z,70.42
2023-11-27T10:47:58.289Z,70.89
2023-11-27T10:50:35.570Z,70.70
2023-11-27T10:53:08.556Z,71.57
2023-11-27T10:55:43.595Z,70.94
2023-11-27T10:58:15.665Z,71.86
2023-11-27T11:00:57.608Z,70.95
2023-11-27T11:03:33.800Z,70.32
2023-11-27T11:06:09.831Z,70.96
2023-11-27T11:08:44.949Z,70.58
2023-11-27T11:11:19.183Z,70.71
2023-11-27T11:13:52.547Z,70.17
2023-11-27T11:16:41.737Z,70.71
2023-11-27T11:19:38.288Z,70.90
2023-11-27T11:22:10.047Z,70.96
2023-11-27T11:25:21.470Z,70.57
2023-11-27T11:28:07.472Z,71.52
2023-11-27T11:30:39.558Z,70.68
2023-11-27T11:33:20.052Z,71.53
2023-11-27T11:35:52.038Z,71.13
2023-11-27T11:38:24.184Z,71.59
2023-11-27T11:40:57.743Z,71.64
2023-11-27T11:43:29.912Z,71.52
2023-11-27T11:46:01.901Z,71.09
2023-11-27T11:48:38.413Z,71.43
2023-11-27T11:51:17.167Z,70.66
2023-11-27T11:53:53.335Z,71.20
2023-11-27T11:56:30.271Z,71.34
2023-11-27T11:59:11.251Z,72.32
2023-11-27T12:01:43.082Z,73.24
2023-11-27T12:04:15.341Z,73.36
2023-11-27T12:06:47.434Z,74.54
2023-11-27T12:09:20.158Z,74.32
2023-11-27T12:11:59.286Z,74.50
2023-11-27T12:14:34.124Z,74.54
2023-11-27T12:17:08.718Z,74.36
2023-11-27T12:19:40.716Z,74.16
2023-11-27T12:22:13.175Z,74.84
2023-11-27T12:24:47.308Z,74.11
2023-11-27T12:27:19.123Z,74.50
2023-11-27T12:29:51.182Z,74.51
2023-11-27T12:32:26.212Z,74.97
2023-11-27T12:34:58.111Z,74.70
2023-11-27T12:37:30.923Z,74.74
2023-11-27T12:40:03.908Z,75.09
2023-11-27T12:42:37.407Z,75.69
2023-11-27T12:45:09.962Z,75.41
2023-11-27T12:47:51.404Z,75.45
2023-11-27T12:50:30.463Z,76.26
2023-11-27T12:53:08.558Z,75.39
2023-11-27T12:55:49.083Z,76.40
2023-11-27T12:58:22.796Z,76.10
2023-11-27T13:00:57.694Z,75.42
2023-11-27T13:03:32.302Z,76.03
2023-11-27T13:06:04.570Z,75.46
2023-11-27T13:08:36.342Z,75.88
2023-11-27T13:11:08.133Z,75.82
2023-11-27T13:13:41.033Z,76.03
2023-11-27T13:16:18.707Z,75.97
2023-11-27T13:18:50.603Z,76.10
2023-11-27T13:21:23.182Z,75.95
2023-11-27T13:23:54.965Z,77.87
2023-11-27T13:26:29.902Z,78.19
2023-11-27T13:29:02.081Z,78.50
2023-11-27T13:31:38.249Z,78.81
2023-11-27T13:34:33.380Z,79.20
2023-11-27T13:37:11.832Z,79.63
2023-11-27T13:39:55.970Z,80.04
2023-11-27T13:42:32.356Z,79.77
2023-11-27T13:45:05.057Z,80.15
2023-11-27T13:47:37.798Z,79.88
2023-11-27T13:50:10.858Z,80.03
2023-11-27T13:52:44.158Z,80.22
2023-11-27T13:55:19.172Z,80.44
2023-11-27T13:57:53.336Z,80.92
2023-11-27T14:00:27.835Z,80.51
2023-11-27T14:03:03.849Z,80.85
2023-11-27T14:05:38.935Z,81.56
2023-11-27T14:08:16.726Z,81.12
2023-11-27T14:11:09.805Z,80.77
2023-11-27T14:13:47.608Z,81.46
2023-11-27T14:16:21.419Z,81.14
2023-11-27T14:19:13.275Z,81.32
2023-11-27T14:22:03.499Z,81.24
2023-11-27T14:24:55.531Z,81.03
2023-11-27T14:27:40.888Z,80.73
2023-11-27T14:30:16.277Z,81.46
2023-11-27T14:32:48.821Z,80.62
2023-11-27T14:35:21.427Z,81.30
2023-11-27T14:37:53.518Z,81.57
2023-11-27T14:40:32.585Z,81.21
2023-11-27T14:43:04.483Z,81.60
2023-11-27T14:45:43.706Z,81.38
2023-11-27T14:48:17.134Z,81.38
2023-11-27T14:50:49.000Z,82.01
2023-11-27T14:53:22.599Z,81.95
2023-11-27T14:55:54.420Z,81.53
2023-11-27T14:58:26.607Z,81.70
2023-11-27T15:01:03.292Z,81.46
2023-11-27T15:03:36.140Z,81.31
2023-11-27T15:06:09.132Z,81.68
2023-11-27T15:08:40.955Z,81.62
2023-11-27T15:11:14.056Z,81.56
2023-11-27T15:13:46.772Z,81.71
2023-11-27T15:16:21.719Z,81.60
2023-11-27T15:18:53.854Z,82.05
2023-11-27T15:21:25.840Z,81.70
2023-11-27T15:23:57.681Z,81.38
2023-11-27T15:26:29.425Z,81.68
2023-11-27T15:29:01.245Z,81.49
2023-11-27T15:31:36.711Z,80.95
2023-11-27T15:34:11.359Z,80.40
2023-11-27T15:36:43.154Z,80.20
2023-11-27T15:39:24.565Z,81.10
2023-11-27T15:41:57.380Z,80.64
2023-11-27T15:44:29.207Z,81.13
2023-11-27T15:47:02.047Z,81.03
2023-11-27T15:49:34.459Z,80.95
2023-11-27T15:52:07.900Z,80.79
2023-11-27T15:54:40.218Z,80.85
2023-11-27T15:57:12.134Z,81.00
2023-11-27T15:59:44.806Z,81.38
2023-11-27T16:02:16.785Z,81.35
2023-11-27T16:04:48.652Z,82.55
2023-11-27T16:07:22.096Z,81.18
2023-11-27T16:09:53.879Z,80.98
2023-11-27T16:12:29.258Z,81.43
2023-11-27T16:15:01.035Z,80.81
2023-11-27T16:17:47.434Z,81.90
2023-11-27T16:20:26.074Z,81.32
2023-11-27T16:22:58.061Z,80.96
2023-11-27T16:25:29.858Z,80.98
2023-11-27T16:28:05.477Z,81.05
2023-11-27T16:30:37.319Z,81.31
2023-11-27T16:33:09.442Z,81.10
2023-11-27T16:35:42.728Z,81.40
2023-11-27T16:38:14.605Z,82.65
2023-11-27T16:40:46.623Z,81.67
2023-11-27T16:43:18.514Z,81.55
2023-11-27T16:45:50.353Z,81.17
2023-11-27T16:48:22.687Z,81.22
2023-11-27T16:50:54.490Z,81.08
2023-11-27T16:53:29.339Z,80.95
2023-11-27T16:56:03.046Z,81.21
2023-11-27T16:58:34.868Z,80.79
2023-11-27T17:01:08.018Z,81.04
2023-11-27T17:03:43.189Z,81.26
2023-11-27T17:06:15.354Z,81.38
2023-11-27T17:08:47.937Z,81.48
2023-11-27T17:11:19.768Z,81.81
2023-11-27T17:13:51.752Z,81.95
2023-11-27T17:16:25.072Z,81.30
2023-11-27T17:18:57.305Z,81.62
2023-11-27T17:21:29.442Z,81.03
2023-11-27T17:24:01.486Z,80.95
2023-11-27T17:26:33.387Z,80.87
2023-11-27T17:29:05.354Z,80.68
2023-11-27T17:31:37.142Z,80.90
2023-11-27T17:34:08.961Z,80.79
2023-11-27T17:36:40.775Z,80.39
2023-11-27T17:39:14.948Z,80.19
2023-11-27T17:41:47.520Z,80.90
2023-11-27T17:44:20.674Z,79.91
2023-11-27T17:46:52.632Z,79.97
2023-11-27T17:49:24.460Z,80.60
2023-11-27T17:51:57.368Z,80.38
2023-11-27T17:54:29.185Z,80.34
2023-11-27T17:57:00.940Z,80.61
2023-11-27T17:59:32.803Z,80.53
2023-11-27T18:02:07.014Z,80.41
2023-11-27T18:04:40.293Z,80.59
2023-11-27T18:07:12.112Z,80.63
2023-11-27T18:09:44.541Z,80.62
2023-11-27T18:12:16.673Z,80.71
2023-11-27T18:14:48.943Z,80.53
2023-11-27T18:17:21.156Z,80.72
2023-11-27T18:19:53.040Z,80.53
2023-11-27T18:22:25.093Z,80.26
2023-11-27T18:24:56.884Z,80.34
2023-11-27T18:27:28.664Z,80.36
2023-11-27T18:30:00.583Z,81.23
2023-11-27T18:32:32.901Z,81.28
2023-11-27T18:35:05.183Z,81.05
2023-11-27T18:37:37.379Z,81.13
2023-11-27T18:40:15.512Z,81.21
2023-11-27T18:42:52.188Z,81.65
2023-11-27T18:45:25.678Z,82.13
2023-11-27T18:47:58.027Z,81.97
2023-11-27T18:50:29.886Z,82.10
2023-11-27T18:53:02.153Z,81.25
2023-11-27T18:55:34.091Z,81.17
2023-11-27T18:58:05.947Z,81.05
2023-11-27T19:00:37.767Z,81.80
2023-11-27T19:03:10.601Z,81.51
2023-11-27T19:05:42.451Z,81.38
2023-11-27T19:08:14.267Z,81.19
2023-11-27T19:10:46.090Z,81.61
2023-11-27T19:13:17.973Z,81.65
2023-11-27T19:15:52.845Z,81.03
2023-11-27T19:18:25.610Z,81.46
2023-11-27T19:20:57.422Z,81.01
2023-11-27T19:23:29.520Z,81.04
2023-11-27T19:26:01.589Z,81.11
2023-11-27T19:28:35.794Z,81.21
2023-11-27T19:31:08.196Z,80.94
2023-11-27T19:33:39.999Z,80.73
2023-11-27T19:36:22.118Z,81.30
2023-11-27T19:38:54.223Z,81.51
2023-11-27T19:41:25.996Z,81.37
2023-11-27T19:43:57.917Z,81.38
2023-11-27T19:46:29.787Z,81.75
2023-11-27T19:49:03.292Z,81.45
2023-11-27T19:51:35.145Z,81.30
2023-11-27T19:54:07.539Z,81.35
2023-11-27T19:56:40.967Z,81.34
2023-11-27T19:59:12.876Z,81.14
2023-11-27T20:01:44.767Z,81.46
2023-11-27T20:04:16.566Z,81.40
2023-11-27T20:06:48.408Z,81.56
2023-11-27T20:09:20.347Z,81.14
2023-11-27T20:11:54.164Z,81.60
2023-11-27T20:14:25.948Z,81.53
2023-11-27T20:16:59.588Z,81.64
2023-11-27T20:19:31.432Z,81.37
2023-11-27T20:22:04.723Z,81.53
2023-11-27T20:24:36.895Z,81.17
2023-11-27T20:27:08.687Z,81.41
2023-11-27T20:29:46.280Z,81.05
2023-11-27T20:32:18.184Z,81.61
2023-11-27T20:34:50.224Z,81.46
2023-11-27T20:37:22.071Z,80.89
2023-11-27T20:39:54.316Z,80.69
2023-11-27T20:42:26.086Z,81.41
2023-11-27T20:44:57.847Z,81.36
2023-11-27T20:47:30.499Z,82.21
2023-11-27T20:50:02.484Z,81.89
2023-11-27T20:52:34.590Z,81.82
2023-11-27T20:55:08.439Z,81.71
2023-11-27T20:57:41.580Z,81.37
2023-11-27T21:00:13.796Z,81.42
2023-11-27T21:02:46.557Z,81.30
2023-11-27T21:05:18.349Z,81.61
2023-11-27T21:07:50.165Z,81.91
2023-11-27T21:10:22.312Z,81.49
2023-11-27T21:12:54.335Z,81.63
2023-11-27T21:15:26.789Z,80.93
2023-11-27T21:17:58.833Z,80.94
2023-11-27T21:20:30.761Z,81.02
2023-11-27T21:23:02.634Z,81.21
2023-11-27T21:25:35.073Z,81.01
2023-11-27T21:28:06.934Z,80.91
2023-11-27T21:30:38.994Z,80.83
2023-11-27T21:33:10.841Z,80.77
2023-11-27T21:35:42.725Z,80.88
2023-11-27T21:38:14.562Z,80.75
2023-11-27T21:40:46.448Z,80.51
2023-11-27T21:43:19.207Z,80.25
2023-11-27T21:45:51.094Z,80.30
2023-11-27T21:48:23.486Z,80.03
2023-11-27T21:50:55.617Z,80.12
2023-11-27T21:53:27.377Z,80.59
2023-11-27T21:55:59.253Z,80.29
2023-11-27T21:58:31.091Z,80.99
2023-11-27T22:01:15.519Z,81.09
2023-11-27T22:03:49.582Z,81.23
2023-11-27T22:06:21.433Z,80.88
2023-11-27T22:08:53.193Z,80.89
2023-11-27T22:11:25.216Z,80.73
2023-11-27T22:13:57.123Z,80.37
2023-11-27T22:16:29.119Z,80.28
2023-11-27T22:19:01.449Z,80.69
2023-11-27T22:21:33.405Z,80.57
2023-11-27T22:24:05.908Z,80.49
2023-11-27T22:26:42.260Z,80.70
2023-11-27T22:29:14.076Z,80.15
2023-11-27T22:31:45.932Z,80.50
2023-11-27T22:34:18.882Z,79.65
2023-11-27T22:36:50.669Z,80.34
2023-11-27T22:39:25.151Z,80.10
2023-11-27T22:41:56.962Z,80.44
2023-11-27T22:44:28.755Z,80.62
2023-11-27T22:47:00.918Z,80.59
2023-11-27T22:49:32.733Z,80.34
2023-11-27T22:52:04.785Z,80.30
2023-11-27T22:54:42.997Z,80.51
2023-11-27T22:57:15.243Z,80.74
2023-11-27T22:59:47.240Z,80.18
2023-11-27T23:02:19.441Z,80.12
2023-11-27T23:04:51.400Z,80.50
2023-11-27T23:07:23.423Z,79.91
2023-11-27T23:09:55.293Z,79.68
2023-11-27T23:12:27.654Z,80.19
2023-11-27T23:14:59.759Z,80.34
2023-11-27T23:17:31.642Z,80.13
2023-11-27T23:20:03.615Z,80.00
2023-11-27T23:22:35.734Z,79.72
2023-11-27T23:25:07.830Z,79.71
2023-11-27T23:27:39.632Z,80.43
2023-11-27T23:30:12.163Z,80.10
2023-11-27T23:32:44.328Z,79.85
2023-11-27T23:35:16.139Z,79.73
2023-11-27T23:37:48.416Z,80.14
2023-11-27T23:40:20.348Z,80.46
2023-11-27T23:42:52.170Z,80.20
2023-11-27T23:45:23.939Z,80.01
2023-11-27T23:47:56.958Z,79.15
2023-11-27T23:50:28.780Z,79.92
2023-11-27T23:53:06.476Z,79.61
2023-11-27T23:55:40.274Z,80.30
2023-11-27T23:58:12.393Z,79.71
